Terminal Aerodrome Forecast
Issued by NWS

Current Version | Previous Version | Graphics & Text | Print | Product List | Glossary On
Versions: 1 2 3 4 5 6 7 8 9 10 11 12 13 14 15 16 17
000
FTUS41 KILN 280500
TAFLUK
TAF
KLUK 280536Z 2806/2906 01005KT P6SM SCT250
     FM280800 00000KT 5SM BR SCT250
      TEMPO 2808/2812 1 1/2SM BR
     FM281300 06005KT P6SM SCT090 SCT250
     FM290500 00000KT 5SM BR SCT250=

USA.gov is the U.S. government's official web portal to all federal, state and local government web resources and services.